Terminal Aerodrome Forecast
Issued by NWS

Home | Current Version | Previous Version | Text Only | Print | Product List | Glossary On
Versions: 1 2 3 4 5 6 7 8 9 10 11 12 13 14 15 16 17 18 19 20 21 22 23 24 25 26 27 28 29
000
FTAK31 PANC 280902 AAA
TAFADQ
TAF AMD
PADQ 280902Z 2809/2906 35006KT 5SM -SHRA BR SCT007 BKN020
     FM281400 31010KT 5SM -SHRA BR OVC010
     FM282000 31011KT P6SM -SHRA OVC035=

USA.gov is the U.S. government's official web portal to all federal, state and local government web resources and services.